sensor_id;sensor_type;location;lat;lon;timestamp;temperature;humidity
18729;DHT22;9493;51.884;5.188;2023-07-08T09:50:17;29.90;97.80
18729;DHT22;9493;51.884;5.188;2023-07-08T09:52:45;30.20;97.70
18729;DHT22;9493;51.884;5.188;2023-07-08T09:55:12;30.10;97.40
18729;DHT22;9493;51.884;5.188;2023-07-08T09:57:44;30.50;97.30
18729;DHT22;9493;51.884;5.188;2023-07-08T10:00:14;30.50;97.00
18729;DHT22;9493;51.884;5.188;2023-07-08T10:02:45;30.70;96.90
18729;DHT22;9493;51.884;5.188;2023-07-08T10:05:17;30.60;96.80
18729;DHT22;9493;51.884;5.188;2023-07-08T10:07:45;30.60;96.60
18729;DHT22;9493;51.884;5.188;2023-07-08T10:10:15;30.80;96.40
18729;DHT22;9493;51.884;5.188;2023-07-08T10:12:56;30.80;96.20
18729;DHT22;9493;51.884;5.188;2023-07-08T10:15:29;31.20;96.00
18729;DHT22;9493;51.884;5.188;2023-07-08T10:17:58;31.00;95.80
18729;DHT22;9493;51.884;5.188;2023-07-08T10:20:29;31.40;95.60
18729;DHT22;9493;51.884;5.188;2023-07-08T10:23:14;31.60;95.70
18729;DHT22;9493;51.884;5.188;2023-07-08T10:25:46;31.50;95.50
18729;DHT22;9493;51.884;5.188;2023-07-08T10:28:26;31.50;95.20
18729;DHT22;9493;51.884;5.188;2023-07-08T10:31:04;31.60;95.10
18729;DHT22;9493;51.884;5.188;2023-07-08T10:33:53;31.70;95.10
18729;DHT22;9493;51.884;5.188;2023-07-08T10:36:30;31.80;94.90
18729;DHT22;9493;51.884;5.188;2023-07-08T10:39:34;31.80;94.70
18729;DHT22;9493;51.884;5.188;2023-07-08T10:42:15;31.80;94.60
18729;DHT22;9493;51.884;5.188;2023-07-08T10:44:50;31.60;94.50
18729;DHT22;9493;51.884;5.188;2023-07-08T10:47:34;31.20;94.40
18729;DHT22;9493;51.884;5.188;2023-07-08T10:50:19;31.60;94.30
18729;DHT22;9493;51.884;5.188;2023-07-08T10:53:01;31.80;94.10
18729;DHT22;9493;51.884;5.188;2023-07-08T10:55:36;31.90;93.90
18729;DHT22;9493;51.884;5.188;2023-07-08T10:58:25;31.80;93.70
18729;DHT22;9493;51.884;5.188;2023-07-08T11:01:00;32.00;93.60
18729;DHT22;9493;51.884;5.188;2023-07-08T11:03:49;32.10;93.60
18729;DHT22;9493;51.884;5.188;2023-07-08T11:06:22;32.00;93.20
18729;DHT22;9493;51.884;5.188;2023-07-08T11:08:55;32.20;93.20
18729;DHT22;9493;51.884;5.188;2023-07-08T11:11:32;31.70;92.90
18729;DHT22;9493;51.884;5.188;2023-07-08T11:14:05;31.80;92.80
18729;DHT22;9493;51.884;5.188;2023-07-08T11:16:39;32.30;92.70
18729;DHT22;9493;51.884;5.188;2023-07-08T11:19:11;32.30;92.60
18729;DHT22;9493;51.884;5.188;2023-07-08T11:21:43;32.50;92.50
18729;DHT22;9493;51.884;5.188;2023-07-08T11:24:18;32.80;92.50
18729;DHT22;9493;51.884;5.188;2023-07-08T11:26:52;32.50;92.50
18729;DHT22;9493;51.884;5.188;2023-07-08T11:29:22;32.60;92.40
18729;DHT22;9493;51.884;5.188;2023-07-08T11:31:51;33.20;91.90
18729;DHT22;9493;51.884;5.188;2023-07-08T11:34:21;32.90;91.50
18729;DHT22;9493;51.884;5.188;2023-07-08T11:36:49;33.00;91.10
18729;DHT22;9493;51.884;5.188;2023-07-08T11:39:32;33.30;90.60
18729;DHT22;9493;51.884;5.188;2023-07-08T11:42:13;33.10;90.40
18729;DHT22;9493;51.884;5.188;2023-07-08T11:44:43;33.10;90.20
18729;DHT22;9493;51.884;5.188;2023-07-08T11:47:16;33.30;90.20
18729;DHT22;9493;51.884;5.188;2023-07-08T11:49:47;33.80;89.90
18729;DHT22;9493;51.884;5.188;2023-07-08T11:52:18;33.70;88.30
18729;DHT22;9493;51.884;5.188;2023-07-08T11:54:48;34.00;88.20
18729;DHT22;9493;51.884;5.188;2023-07-08T11:57:24;33.60;87.00
18729;DHT22;9493;51.884;5.188;2023-07-08T12:00:12;33.70;86.70
18729;DHT22;9493;51.884;5.188;2023-07-08T12:02:53;33.80;87.00
18729;DHT22;9493;51.884;5.188;2023-07-08T12:05:30;34.10;85.60
18729;DHT22;9493;51.884;5.188;2023-07-08T12:07:58;34.00;83.70
18729;DHT22;9493;51.884;5.188;2023-07-08T12:10:32;34.00;83.60
18729;DHT22;9493;51.884;5.188;2023-07-08T12:13:00;34.10;83.00
18729;DHT22;9493;51.884;5.188;2023-07-08T12:15:28;34.30;82.70
18729;DHT22;9493;51.884;5.188;2023-07-08T12:18:00;34.10;82.60
18729;DHT22;9493;51.884;5.188;2023-07-08T12:20:30;34.30;82.30
18729;DHT22;9493;51.884;5.188;2023-07-08T12:22:58;34.30;81.90
18729;DHT22;9493;51.884;5.188;2023-07-08T12:25:29;34.30;81.80
18729;DHT22;9493;51.884;5.188;2023-07-08T12:27:57;34.30;81.70
18729;DHT22;9493;51.884;5.188;2023-07-08T12:30:27;34.70;82.10
18729;DHT22;9493;51.884;5.188;2023-07-08T12:32:56;34.30;81.10
18729;DHT22;9493;51.884;5.188;2023-07-08T12:35:27;34.50;80.30
18729;DHT22;9493;51.884;5.188;2023-07-08T12:37:58;34.80;80.10
18729;DHT22;9493;51.884;5.188;2023-07-08T12:40:26;35.00;79.50
18729;DHT22;9493;51.884;5.188;2023-07-08T12:42:55;34.90;78.90
18729;DHT22;9493;51.884;5.188;2023-07-08T12:45:23;35.00;79.20
18729;DHT22;9493;51.884;5.188;2023-07-08T12:47:51;34.70;78.50
18729;DHT22;9493;51.884;5.188;2023-07-08T12:50:18;34.40;78.30
18729;DHT22;9493;51.884;5.188;2023-07-08T12:52:46;34.60;78.10
18729;DHT22;9493;51.884;5.188;2023-07-08T12:55:14;34.80;77.30
18729;DHT22;9493;51.884;5.188;2023-07-08T12:57:44;35.30;76.90
18729;DHT22;9493;51.884;5.188;2023-07-08T13:00:16;34.80;76.80
18729;DHT22;9493;51.884;5.188;2023-07-08T13:02:45;34.60;76.50
18729;DHT22;9493;51.884;5.188;2023-07-08T13:05:17;34.80;76.30
18729;DHT22;9493;51.884;5.188;2023-07-08T13:07:44;34.90;76.10
18729;DHT22;9493;51.884;5.188;2023-07-08T13:10:18;34.90;76.20
18729;DHT22;9493;51.884;5.188;2023-07-08T13:12:47;34.80;76.20
18729;DHT22;9493;51.884;5.188;2023-07-08T13:15:20;35.00;76.40
18729;DHT22;9493;51.884;5.188;2023-07-08T13:17:48;34.80;76.30
18729;DHT22;9493;51.884;5.188;2023-07-08T13:20:15;34.70;76.40
18729;DHT22;9493;51.884;5.188;2023-07-08T17:07:46;32.90;84.50
18729;DHT22;9493;51.884;5.188;2023-07-08T17:10:13;32.70;84.20
18729;DHT22;9493;51.884;5.188;2023-07-08T17:12:40;32.60;83.80
18729;DHT22;9493;51.884;5.188;2023-07-08T17:15:11;33.00;83.60
18729;DHT22;9493;51.884;5.188;2023-07-08T17:17:39;32.90;83.10
18729;DHT22;9493;51.884;5.188;2023-07-08T17:20:16;32.80;83.00
18729;DHT22;9493;51.884;5.188;2023-07-08T17:22:46;32.80;83.00
18729;DHT22;9493;51.884;5.188;2023-07-08T17:27:52;32.90;83.40
18729;DHT22;9493;51.884;5.188;2023-07-08T17:45:45;32.20;84.80
18729;DHT22;9493;51.884;5.188;2023-07-08T17:48:16;31.90;85.00
18729;DHT22;9493;51.884;5.188;2023-07-08T17:50:44;31.70;85.40
18729;DHT22;9493;51.884;5.188;2023-07-08T17:53:11;31.40;85.90
18729;DHT22;9493;51.884;5.188;2023-07-08T17:55:38;31.20;86.30
18729;DHT22;9493;51.884;5.188;2023-07-08T17:58:05;31.10;86.30
18729;DHT22;9493;51.884;5.188;2023-07-08T18:00:34;31.10;86.40
18729;DHT22;9493;51.884;5.188;2023-07-08T18:03:02;31.00;86.40
18729;DHT22;9493;51.884;5.188;2023-07-08T18:05:31;31.00;86.40
18729;DHT22;9493;51.884;5.188;2023-07-08T18:07:58;31.00;86.50
18729;DHT22;9493;51.884;5.188;2023-07-08T18:10:27;31.00;86.70
18729;DHT22;9493;51.884;5.188;2023-07-08T18:12:55;31.00;87.00
18729;DHT22;9493;51.884;5.188;2023-07-08T18:15:25;30.90;87.30
18729;DHT22;9493;51.884;5.188;2023-07-08T18:17:54;30.80;87.50
